createdAt,value
2017-05-09T00:00:44.235Z,5.20
2017-05-09T00:03:12.276Z,5.20
2017-05-09T00:05:40.688Z,5.10
2017-05-09T00:08:08.321Z,5.00
2017-05-09T00:10:36.346Z,4.90
2017-05-09T00:13:03.974Z,4.90
2017-05-09T00:15:31.605Z,4.80
2017-05-09T00:17:59.585Z,4.70
2017-05-09T00:20:27.215Z,4.70
2017-05-09T00:22:54.850Z,4.70
2017-05-09T00:25:22.837Z,4.60
2017-05-09T00:27:50.460Z,4.50
2017-05-09T00:30:18.156Z,4.40
2017-05-09T00:32:46.096Z,4.40
2017-05-09T00:35:13.727Z,4.40
2017-05-09T00:37:42.130Z,4.20
2017-05-09T00:40:11.573Z,4.10
2017-05-09T00:42:39.219Z,4.10
2017-05-09T00:45:06.859Z,4.10
2017-05-09T00:47:34.828Z,4.10
2017-05-09T00:50:03.248Z,3.90
2017-05-09T00:52:31.643Z,3.90
2017-05-09T00:54:59.611Z,3.80
2017-05-09T00:57:28.149Z,3.80
2017-05-09T00:59:55.787Z,3.80
2017-05-09T01:02:24.491Z,3.70
2017-05-09T01:04:52.121Z,3.60
2017-05-09T01:07:19.756Z,3.60
2017-05-09T01:09:48.487Z,3.50
2017-05-09T01:12:16.124Z,3.40
2017-05-09T01:14:44.524Z,3.50
2017-05-09T01:17:13.344Z,3.40
2017-05-09T01:19:41.739Z,3.30
2017-05-09T01:22:09.372Z,3.20
2017-05-09T01:24:37.308Z,3.30
2017-05-09T01:27:04.938Z,3.20
2017-05-09T01:29:32.570Z,3.10
2017-05-09T01:32:00.559Z,3.10
2017-05-09T01:34:28.197Z,3.00
2017-05-09T01:36:55.837Z,3.00
2017-05-09T01:39:23.798Z,3.00
2017-05-09T01:41:51.441Z,2.90
2017-05-09T01:44:19.077Z,2.90
2017-05-09T01:46:47.002Z,2.90
2017-05-09T01:49:15.392Z,2.80
2017-05-09T01:51:43.024Z,2.80
2017-05-09T01:54:10.958Z,2.80
2017-05-09T01:56:39.368Z,2.80
2017-05-09T01:59:07.771Z,2.80
2017-05-09T02:01:37.232Z,2.70
2017-05-09T02:04:05.624Z,2.70
2017-05-09T02:06:33.259Z,2.70
2017-05-09T02:09:01.284Z,2.60
2017-05-09T02:11:28.919Z,2.60
2017-05-09T02:13:56.558Z,2.60
2017-05-09T02:16:24.509Z,2.60
2017-05-09T02:18:52.140Z,2.50
2017-05-09T02:21:20.534Z,2.50
2017-05-09T02:23:48.501Z,2.40
2017-05-09T02:26:16.701Z,2.40
2017-05-09T02:28:44.342Z,2.40
2017-05-09T02:31:12.368Z,2.40
2017-05-09T02:33:40.001Z,2.40
2017-05-09T02:36:07.632Z,2.30
2017-05-09T02:38:35.609Z,2.10
2017-05-09T02:41:03.239Z,2.00
2017-05-09T02:43:30.871Z,1.90
2017-05-09T02:45:59.853Z,1.90
2017-05-09T02:48:28.254Z,1.80
2017-05-09T02:50:55.888Z,1.70
2017-05-09T02:53:23.845Z,1.80
2017-05-09T02:55:51.485Z,1.70
2017-05-09T02:58:19.121Z,1.70
2017-05-09T03:00:47.887Z,1.70
2017-05-09T03:03:15.517Z,1.60
2017-05-09T03:05:43.945Z,1.60
2017-05-09T03:08:11.880Z,1.60
2017-05-09T03:10:39.521Z,1.70
2017-05-09T03:13:07.161Z,1.80
2017-05-09T03:15:35.129Z,1.80
2017-05-09T03:18:03.544Z,1.80
2017-05-09T03:20:31.945Z,1.70
2017-05-09T03:22:59.899Z,1.70
2017-05-09T03:25:27.523Z,1.70
2017-05-09T03:27:55.157Z,1.70
2017-05-09T03:30:23.867Z,1.70
2017-05-09T03:32:51.558Z,1.60
2017-05-09T03:35:19.188Z,1.70
2017-05-09T03:37:47.228Z,1.70
2017-05-09T03:40:15.623Z,1.60
2017-05-09T03:42:43.576Z,1.60
2017-05-09T03:45:12.449Z,1.50
2017-05-09T03:47:40.859Z,1.50
2017-05-09T03:50:08.501Z,1.50
2017-05-09T03:52:36.449Z,1.50
2017-05-09T03:55:04.841Z,1.60
2017-05-09T03:57:32.477Z,1.50
2017-05-09T04:00:00.416Z,1.60
2017-05-09T04:02:28.041Z,1.70
2017-05-09T04:04:56.450Z,1.80
2017-05-09T04:07:24.478Z,1.70
2017-05-09T04:09:52.114Z,1.90
2017-05-09T04:12:20.517Z,2.00
2017-05-09T04:14:48.465Z,1.90
2017-05-09T04:17:16.121Z,2.00
2017-05-09T04:19:43.758Z,1.90
2017-05-09T04:22:11.713Z,1.90
2017-05-09T04:24:39.352Z,1.90
2017-05-09T04:27:07.764Z,2.00
2017-05-09T04:29:35.715Z,2.00
2017-05-09T04:32:03.353Z,2.00
2017-05-09T04:34:31.018Z,2.10
2017-05-09T04:36:59.709Z,2.40
2017-05-09T04:39:27.346Z,2.30
2017-05-09T04:41:55.759Z,2.60
2017-05-09T04:44:23.797Z,2.60
2017-05-09T04:46:51.444Z,2.70
2017-05-09T04:49:19.119Z,2.80
2017-05-09T04:51:47.882Z,2.80
2017-05-09T04:54:15.518Z,2.80
2017-05-09T04:56:43.148Z,2.90
2017-05-09T04:59:11.073Z,2.90
2017-05-09T05:01:39.486Z,2.90
2017-05-09T05:04:07.126Z,2.90
2017-05-09T05:06:35.169Z,3.00
2017-05-09T05:09:03.561Z,3.10
2017-05-09T05:11:31.962Z,3.30
2017-05-09T05:14:00.652Z,3.30
2017-05-09T05:16:29.048Z,3.40
2017-05-09T05:18:57.450Z,3.50
2017-05-09T05:21:26.904Z,3.60
2017-05-09T05:23:55.511Z,3.90
2017-05-09T05:26:23.146Z,3.80
2017-05-09T05:28:52.608Z,4.00
2017-05-09T05:31:20.242Z,4.00
2017-05-09T05:33:47.873Z,4.20
2017-05-09T05:36:15.865Z,4.40
2017-05-09T05:38:43.520Z,4.50
2017-05-09T05:41:11.181Z,4.60
2017-05-09T05:43:40.648Z,4.90
2017-05-09T05:46:08.276Z,4.80
2017-05-09T05:48:36.669Z,5.10
2017-05-09T05:51:04.601Z,5.00
2017-05-09T05:53:32.237Z,5.30
2017-05-09T05:55:59.892Z,5.40
2017-05-09T05:58:27.846Z,5.50
2017-05-09T06:00:55.472Z,5.50
2017-05-09T06:03:23.116Z,5.50
2017-05-09T06:05:51.101Z,5.50
2017-05-09T06:08:18.725Z,5.40
2017-05-09T06:10:46.359Z,5.50
2017-05-09T06:13:15.181Z,5.80
2017-05-09T06:15:42.816Z,5.80
2017-05-09T06:18:10.440Z,5.80
2017-05-09T06:20:39.120Z,5.80
2017-05-09T06:23:07.521Z,6.30
2017-05-09T06:25:35.152Z,6.20
2017-05-09T06:28:03.181Z,6.40
2017-05-09T06:30:30.807Z,6.30
2017-05-09T06:32:59.207Z,6.60
2017-05-09T06:35:27.149Z,6.50
2017-05-09T06:37:55.554Z,6.20
2017-05-09T06:40:23.193Z,6.10
2017-05-09T06:42:51.116Z,6.10
2017-05-09T06:45:19.521Z,6.40
2017-05-09T06:47:47.153Z,6.30
2017-05-09T06:50:15.207Z,6.50
2017-05-09T06:52:42.844Z,6.90
2017-05-09T06:55:10.472Z,7.00
2017-05-09T06:57:39.160Z,7.10
2017-05-09T07:00:07.557Z,7.30
2017-05-09T07:02:36.222Z,7.50
2017-05-09T07:05:04.940Z,7.90
2017-05-09T07:07:32.566Z,7.90
2017-05-09T07:10:00.968Z,7.50
2017-05-09T07:12:29.693Z,7.50
2017-05-09T07:14:58.085Z,7.20
2017-05-09T07:17:25.721Z,7.10
2017-05-09T07:19:54.508Z,7.40
2017-05-09T07:22:22.896Z,7.70
2017-05-09T07:24:51.296Z,8.00
2017-05-09T07:27:19.994Z,8.10
2017-05-09T07:29:48.388Z,8.10
2017-05-09T07:32:16.012Z,8.00
2017-05-09T07:34:43.940Z,8.00
2017-05-09T07:37:12.337Z,7.60
2017-05-09T07:39:40.007Z,7.60
2017-05-09T07:42:08.152Z,7.90
2017-05-09T07:44:35.785Z,8.10
2017-05-09T07:47:03.417Z,8.40
2017-05-09T07:49:31.389Z,8.60
2017-05-09T07:51:59.024Z,8.80
2017-05-09T07:54:26.673Z,8.60
2017-05-09T07:56:54.592Z,8.50
2017-05-09T07:59:22.989Z,8.20
2017-05-09T08:01:50.638Z,8.10
2017-05-09T08:04:19.368Z,8.40
2017-05-09T08:06:46.993Z,8.30
2017-05-09T08:09:16.137Z,9.00
2017-05-09T08:11:44.104Z,9.10
2017-05-09T08:14:11.739Z,9.20
2017-05-09T08:16:39.365Z,9.00
2017-05-09T08:19:07.282Z,9.10
2017-05-09T08:21:35.676Z,9.50
2017-05-09T08:24:03.312Z,9.50
2017-05-09T08:26:32.021Z,10.10
2017-05-09T08:28:59.660Z,10.10
2017-05-09T08:31:27.330Z,10.50
2017-05-09T08:33:55.272Z,10.70
2017-05-09T08:36:22.914Z,11.20
2017-05-09T08:38:51.329Z,11.00
2017-05-09T08:41:19.344Z,10.90
2017-05-09T08:43:46.982Z,11.30
2017-05-09T08:46:15.565Z,11.70
2017-05-09T08:48:43.658Z,12.10
2017-05-09T08:51:11.288Z,12.30
2017-05-09T08:53:38.928Z,12.10
2017-05-09T08:56:07.682Z,12.70
2017-05-09T08:58:35.325Z,12.60
2017-05-09T09:01:02.960Z,13.20
2017-05-09T09:03:31.747Z,13.20
2017-05-09T09:06:00.156Z,14.00
2017-05-09T09:08:28.556Z,14.10
2017-05-09T09:10:56.525Z,14.00
2017-05-09T09:13:24.162Z,14.00
2017-05-09T09:15:51.798Z,13.70
2017-05-09T09:18:20.593Z,14.60
2017-05-09T09:20:48.238Z,14.50
2017-05-09T09:23:15.900Z,15.50
2017-05-09T09:25:44.668Z,14.00
2017-05-09T09:28:12.305Z,13.90
2017-05-09T09:30:40.710Z,13.10
2017-05-09T09:33:09.440Z,13.10
2017-05-09T09:35:37.068Z,13.00
2017-05-09T09:38:05.476Z,13.10
2017-05-09T09:40:33.409Z,13.00
2017-05-09T09:43:01.829Z,12.30
2017-05-09T09:45:30.237Z,11.60
2017-05-09T09:47:59.043Z,10.80
2017-05-09T09:50:26.681Z,10.70
2017-05-09T09:52:54.318Z,10.40
2017-05-09T09:55:22.241Z,10.80
2017-05-09T09:57:49.882Z,11.30
2017-05-09T10:00:17.525Z,11.40
2017-05-09T10:02:46.325Z,10.40
2017-05-09T10:05:13.960Z,10.30
2017-05-09T10:07:42.361Z,9.90
2017-05-09T10:10:10.384Z,9.90
2017-05-09T10:12:38.016Z,9.80
2017-05-09T10:15:06.414Z,9.70
2017-05-09T10:17:34.448Z,9.70
2017-05-09T10:20:02.085Z,9.30
2017-05-09T10:22:29.723Z,9.20
2017-05-09T10:24:57.659Z,9.20
2017-05-09T10:27:26.060Z,9.40
2017-05-09T10:29:53.692Z,9.30
2017-05-09T10:32:22.480Z,9.60
2017-05-09T10:34:50.873Z,9.80
2017-05-09T10:37:18.508Z,9.70
2017-05-09T10:39:46.473Z,9.70
2017-05-09T10:42:14.112Z,9.60
2017-05-09T10:44:41.755Z,9.40
2017-05-09T10:47:09.799Z,9.30
2017-05-09T10:49:37.427Z,9.20
2017-05-09T10:52:05.832Z,9.50
2017-05-09T10:54:33.854Z,9.50
2017-05-09T10:57:02.248Z,9.70
2017-05-09T10:59:30.649Z,9.70
2017-05-09T11:01:59.357Z,9.60
2017-05-09T11:04:27.760Z,9.30
2017-05-09T11:06:55.406Z,9.20
2017-05-09T11:09:23.325Z,9.20
2017-05-09T11:11:50.961Z,9.20
2017-05-09T11:14:18.603Z,9.10
2017-05-09T11:16:46.698Z,9.10
2017-05-09T11:19:14.331Z,9.10
2017-05-09T11:21:41.969Z,9.10
2017-05-09T11:24:09.922Z,9.10
2017-05-09T11:26:37.549Z,9.20
2017-05-09T11:29:05.953Z,9.70
2017-05-09T11:31:33.985Z,9.60
2017-05-09T11:34:01.617Z,9.80
2017-05-09T11:36:29.250Z,9.90
2017-05-09T11:38:57.233Z,9.80
2017-05-09T11:41:24.861Z,9.80
2017-05-09T11:43:52.489Z,9.90
2017-05-09T11:46:21.179Z,10.10
2017-05-09T11:48:48.823Z,10.00
2017-05-09T11:51:16.463Z,9.70
2017-05-09T11:53:44.460Z,9.80
2017-05-09T11:56:12.094Z,9.70
2017-05-09T11:58:39.718Z,9.90
2017-05-09T12:01:07.685Z,9.90
2017-05-09T12:03:35.315Z,9.90
2017-05-09T12:06:03.833Z,9.90
2017-05-09T12:08:31.855Z,9.90
2017-05-09T12:11:00.250Z,9.10
2017-05-09T12:13:28.216Z,9.10
2017-05-09T12:15:56.133Z,8.80
2017-05-09T12:18:24.537Z,9.10
2017-05-09T12:20:52.183Z,9.00
2017-05-09T12:23:20.902Z,9.10
2017-05-09T12:25:48.534Z,9.00
2017-05-09T12:28:16.174Z,9.20
2017-05-09T12:30:44.973Z,9.40
2017-05-09T12:33:13.372Z,9.40
2017-05-09T12:35:41.003Z,9.30
2017-05-09T12:38:09.033Z,9.60
2017-05-09T12:40:36.674Z,9.80
2017-05-09T12:43:04.305Z,10.00
2017-05-09T12:45:33.127Z,10.50
2017-05-09T12:48:00.760Z,10.50
2017-05-09T12:50:29.265Z,10.40
2017-05-09T12:52:57.197Z,10.30
2017-05-09T12:55:24.836Z,10.40
2017-05-09T12:57:52.496Z,10.60
2017-05-09T13:00:21.233Z,10.80
2017-05-09T13:02:48.864Z,10.70
2017-05-09T13:05:16.500Z,10.80
2017-05-09T13:07:45.201Z,11.20
2017-05-09T13:10:12.844Z,11.20
2017-05-09T13:12:40.475Z,10.80
2017-05-09T13:15:08.445Z,10.70
2017-05-09T13:17:36.845Z,10.60
2017-05-09T13:20:05.240Z,10.50
2017-05-09T13:22:33.948Z,10.50
2017-05-09T13:25:01.579Z,10.40
2017-05-09T13:27:29.217Z,10.60
2017-05-09T13:29:57.204Z,10.60
2017-05-09T13:32:24.841Z,10.60
2017-05-09T13:34:52.731Z,10.40
2017-05-09T13:37:20.789Z,10.50
2017-05-09T13:39:49.928Z,10.60
2017-05-09T13:42:17.560Z,10.60
2017-05-09T13:44:45.525Z,10.80
2017-05-09T13:47:13.161Z,11.00
2017-05-09T13:49:41.565Z,11.20
2017-05-09T13:52:09.493Z,11.10
2017-05-09T13:54:37.893Z,11.20
2017-05-09T13:57:05.529Z,11.10
2017-05-09T13:59:33.565Z,11.20
2017-05-09T14:02:01.208Z,11.10
2017-05-09T14:04:29.607Z,11.00
2017-05-09T14:06:59.052Z,11.00
2017-05-09T14:09:26.689Z,11.00
2017-05-09T14:11:55.120Z,10.90
2017-05-09T14:14:23.844Z,10.90
2017-05-09T14:16:51.476Z,10.80
2017-05-09T14:19:19.901Z,11.00
2017-05-09T14:21:48.765Z,10.90
2017-05-09T14:24:16.436Z,10.80
2017-05-09T14:26:44.840Z,11.20
2017-05-09T14:29:12.797Z,11.10
2017-05-09T14:31:40.438Z,11.20
2017-05-09T14:34:08.068Z,11.30
2017-05-09T14:36:36.880Z,11.30
2017-05-09T14:39:04.589Z,11.30
2017-05-09T14:41:32.234Z,11.40
2017-05-09T14:44:00.204Z,11.50
2017-05-09T14:46:27.853Z,11.60
2017-05-09T14:48:55.504Z,11.30
2017-05-09T14:51:23.456Z,11.20
2017-05-09T14:53:51.861Z,11.00
2017-05-09T14:56:19.491Z,11.00
2017-05-09T14:58:47.498Z,11.10
2017-05-09T15:01:15.139Z,11.00
2017-05-09T15:03:42.777Z,11.00
2017-05-09T15:06:10.768Z,10.90
2017-05-09T15:08:38.401Z,10.80
2017-05-09T15:11:06.208Z,10.80
2017-05-09T15:13:34.134Z,10.80
2017-05-09T15:16:01.771Z,10.80
2017-05-09T15:18:29.413Z,10.70
2017-05-09T15:20:57.353Z,10.40
2017-05-09T15:23:25.767Z,10.20
2017-05-09T15:25:53.405Z,10.20
2017-05-09T15:28:21.355Z,10.20
2017-05-09T15:30:48.989Z,10.10
2017-05-09T15:33:16.709Z,10.10
2017-05-09T15:35:44.677Z,10.10
2017-05-09T15:38:12.676Z,10.20
2017-05-09T15:40:40.305Z,10.30
2017-05-09T15:43:08.341Z,10.40
2017-05-09T15:45:36.754Z,10.30
2017-05-09T15:48:05.161Z,10.20
2017-05-09T15:50:33.933Z,10.20
2017-05-09T15:53:01.641Z,10.10
2017-05-09T15:55:30.057Z,10.30
2017-05-09T15:57:58.038Z,10.20
2017-05-09T16:00:25.736Z,10.20
2017-05-09T16:02:53.377Z,10.20
2017-05-09T16:05:21.525Z,10.10
2017-05-09T16:07:49.193Z,10.10
2017-05-09T16:10:17.305Z,10.10
2017-05-09T16:12:46.139Z,10.30
2017-05-09T16:15:13.773Z,10.30
2017-05-09T16:17:41.412Z,10.50
2017-05-09T16:20:10.193Z,10.30
2017-05-09T16:22:38.601Z,10.20
2017-05-09T16:25:06.903Z,10.10
2017-05-09T16:27:35.624Z,10.00
2017-05-09T16:30:04.821Z,10.00
2017-05-09T16:32:32.558Z,10.00
2017-05-09T16:35:00.523Z,9.90
2017-05-09T16:37:28.928Z,9.90
2017-05-09T16:39:56.633Z,9.80
2017-05-09T16:42:25.394Z,10.00
2017-05-09T16:44:53.822Z,10.00
2017-05-09T16:47:21.467Z,9.90
2017-05-09T16:49:49.453Z,9.80
2017-05-09T16:52:17.217Z,9.80
2017-05-09T16:54:44.866Z,9.80
2017-05-09T16:57:12.909Z,9.70
2017-05-09T16:59:42.049Z,9.60
2017-05-09T17:02:09.681Z,9.60
2017-05-09T17:04:37.654Z,9.60
2017-05-09T17:07:05.318Z,9.70
2017-05-09T17:09:32.980Z,9.70
2017-05-09T17:12:01.021Z,9.60
2017-05-09T17:14:28.785Z,9.70
2017-05-09T17:16:56.449Z,9.60
2017-05-09T17:19:24.529Z,9.60
2017-05-09T17:21:53.846Z,9.50
2017-05-09T17:24:21.481Z,9.50
2017-05-09T17:26:49.452Z,9.60
2017-05-09T17:29:17.241Z,9.50
2017-05-09T17:31:45.649Z,9.30
2017-05-09T17:34:13.868Z,9.30
2017-05-09T17:36:41.508Z,9.30
2017-05-09T17:39:09.937Z,9.10
2017-05-09T17:41:37.868Z,9.10
2017-05-09T17:44:05.504Z,9.00
2017-05-09T17:46:33.905Z,8.70
2017-05-09T17:49:02.618Z,8.60
2017-05-09T17:51:30.284Z,8.50
2017-05-09T17:53:57.941Z,8.50
2017-05-09T17:56:25.938Z,8.40
2017-05-09T17:58:53.564Z,8.30
2017-05-09T18:01:21.292Z,8.40
2017-05-09T18:03:50.028Z,8.30
2017-05-09T18:06:17.660Z,8.20
2017-05-09T18:08:46.057Z,8.30
2017-05-09T18:11:14.075Z,8.30
2017-05-09T18:13:41.762Z,8.30
2017-05-09T18:16:10.157Z,8.10
2017-05-09T18:18:38.101Z,8.10
2017-05-09T18:21:05.728Z,8.00
2017-05-09T18:23:34.146Z,8.10
2017-05-09T18:26:02.249Z,8.00
2017-05-09T18:28:31.189Z,8.00
2017-05-09T18:30:58.852Z,8.00
2017-05-09T18:33:27.712Z,8.00
2017-05-09T18:35:55.355Z,8.00
2017-05-09T18:38:23.089Z,8.00
2017-05-09T18:40:51.117Z,7.90
2017-05-09T18:43:18.925Z,7.90
2017-05-09T18:45:46.592Z,7.90
2017-05-09T18:48:15.313Z,7.70
2017-05-09T18:50:43.721Z,7.60
2017-05-09T18:53:12.109Z,7.50
2017-05-09T18:55:40.036Z,7.50
2017-05-09T18:58:07.697Z,7.40
2017-05-09T19:00:36.772Z,7.30
2017-05-09T19:03:05.110Z,7.20
2017-05-09T19:05:33.181Z,7.20
2017-05-09T19:08:01.808Z,7.20
2017-05-09T19:10:30.081Z,7.10
2017-05-09T19:12:58.033Z,6.90
2017-05-09T19:15:25.688Z,6.80
2017-05-09T19:17:54.864Z,6.70
2017-05-09T19:20:23.997Z,6.50
2017-05-09T19:22:51.621Z,6.50
2017-05-09T19:25:20.404Z,6.30
2017-05-09T19:27:48.929Z,6.20
2017-05-09T19:30:16.624Z,6.10
2017-05-09T19:32:45.356Z,5.90
2017-05-09T19:35:13.316Z,5.80
2017-05-09T19:37:41.002Z,5.80
2017-05-09T19:40:09.711Z,5.60
2017-05-09T19:42:37.356Z,5.60
2017-05-09T19:45:04.996Z,5.60
2017-05-09T19:47:33.055Z,5.50
2017-05-09T19:50:00.744Z,5.50
2017-05-09T19:52:29.161Z,5.30
2017-05-09T19:54:57.161Z,5.20
2017-05-09T19:57:25.783Z,5.10
2017-05-09T19:59:53.540Z,5.00
2017-05-09T20:02:21.569Z,5.00
2017-05-09T20:04:49.217Z,5.00
2017-05-09T20:07:16.853Z,4.90
2017-05-09T20:09:44.841Z,4.90
2017-05-09T20:12:12.485Z,4.90
2017-05-09T20:14:41.204Z,4.70
2017-05-09T20:17:09.442Z,4.70
2017-05-09T20:19:38.660Z,4.60
2017-05-09T20:22:07.232Z,4.60
2017-05-09T20:24:36.068Z,4.40
2017-05-09T20:27:03.712Z,4.40
2017-05-09T20:29:31.342Z,4.30
2017-05-09T20:31:59.289Z,4.30
2017-05-09T20:34:26.942Z,4.30
2017-05-09T20:36:54.572Z,4.20
2017-05-09T20:39:22.620Z,4.20
2017-05-09T20:41:50.252Z,4.10
2017-05-09T20:44:17.884Z,4.00
2017-05-09T20:46:46.596Z,3.90
2017-05-09T20:49:14.228Z,3.90
2017-05-09T20:51:41.865Z,3.90
2017-05-09T20:54:09.788Z,3.90
2017-05-09T20:56:38.924Z,3.70
2017-05-09T20:59:06.545Z,3.70
2017-05-09T21:01:34.533Z,3.70
2017-05-09T21:04:02.941Z,3.60
2017-05-09T21:06:31.341Z,3.60
2017-05-09T21:08:59.312Z,3.50
2017-05-09T21:11:26.946Z,3.50
2017-05-09T21:13:54.581Z,3.40
2017-05-09T21:16:23.272Z,3.30
2017-05-09T21:18:50.950Z,3.20
2017-05-09T21:21:18.592Z,3.20
2017-05-09T21:23:46.637Z,3.20
2017-05-09T21:26:15.036Z,3.10
2017-05-09T21:28:43.440Z,3.20
2017-05-09T21:31:11.366Z,3.10
2017-05-09T21:33:40.093Z,3.00
2017-05-09T21:36:07.729Z,3.00
2017-05-09T21:38:36.438Z,2.80
2017-05-09T21:41:04.081Z,2.80
2017-05-09T21:43:31.733Z,2.80
2017-05-09T21:46:00.449Z,2.80
2017-05-09T21:48:28.094Z,2.80
2017-05-09T21:50:55.730Z,2.70
2017-05-09T21:53:24.532Z,2.60
2017-05-09T21:55:52.162Z,2.60
2017-05-09T21:58:19.804Z,2.60
2017-05-09T22:00:48.957Z,2.50
2017-05-09T22:03:17.357Z,2.50
2017-05-09T22:05:44.989Z,2.40
2017-05-09T22:08:12.913Z,2.40
2017-05-09T22:10:41.318Z,2.40
2017-05-09T22:13:09.841Z,2.30
2017-05-09T22:15:37.849Z,2.30
2017-05-09T22:18:06.260Z,2.30
2017-05-09T22:20:33.928Z,2.20
2017-05-09T22:23:02.623Z,2.20
2017-05-09T22:25:31.017Z,2.20
2017-05-09T22:27:58.648Z,2.10
2017-05-09T22:30:26.601Z,2.10
2017-05-09T22:32:54.230Z,2.10
2017-05-09T22:35:21.864Z,2.10
2017-05-09T22:37:49.834Z,1.90
2017-05-09T22:40:19.168Z,2.00
2017-05-09T22:42:46.816Z,1.90
2017-05-09T22:45:14.838Z,1.90
2017-05-09T22:47:42.464Z,1.90
2017-05-09T22:50:10.109Z,1.90
2017-05-09T22:52:38.076Z,1.90
2017-05-09T22:55:05.709Z,1.80
2017-05-09T22:57:34.118Z,1.80
2017-05-09T23:00:02.146Z,1.70
2017-05-09T23:02:29.786Z,1.80
2017-05-09T23:04:58.199Z,1.80
2017-05-09T23:07:26.200Z,1.70
2017-05-09T23:09:53.833Z,1.70
2017-05-09T23:12:22.232Z,1.70
2017-05-09T23:14:50.168Z,1.60
2017-05-09T23:17:17.813Z,1.70
2017-05-09T23:19:45.445Z,1.60
2017-05-09T23:22:13.416Z,1.60
2017-05-09T23:24:41.048Z,1.60
2017-05-09T23:27:08.687Z,1.50
2017-05-09T23:29:36.665Z,1.50
2017-05-09T23:32:04.293Z,1.50
2017-05-09T23:34:31.929Z,1.40
2017-05-09T23:36:59.911Z,1.40
2017-05-09T23:39:27.546Z,1.40
2017-05-09T23:41:55.178Z,1.50
2017-05-09T23:44:23.269Z,1.40
2017-05-09T23:46:50.905Z,1.40
2017-05-09T23:49:18.541Z,1.40
2017-05-09T23:51:46.469Z,1.30
2017-05-09T23:54:14.128Z,1.30
2017-05-09T23:56:41.801Z,1.30
2017-05-09T23:59:10.569Z,1.20
